European Highlander — C6SN6 — position and weather

sailwx.info

Track history (hours):
 
Tides and Currents Weather Stations Pressure Air Temp Water Temp Dewpoint Dewpoint Depression Visibility Wind Speed Wind Dir Waves Ship Positions

European Highlander

Operator: P&O Irish Sea Ltd

Last reported at 2017-Nov-23 18:18 UTC. Time now 2017-Nov-23 22:29 UTC.
Position N 54°58' W 005°01'.

Length 161 m; draft 5.5 m.

Type: Passenger vessel. MMSI: 311404000.

Date/timePositionNaut miles runAvg speedWind from/ knotsBaromVisibWave heightAir tempDewpointWater temp
2017-Nov-23 18:18N 54°58' W 005°01'512.5
2017-Nov-23 17:52N 55°02' W 005°08'720.3
2017-Nov-23 17:30N 54°58' W 005°19'1020.5
2017-Nov-23 17:00N 54°54' W 005°36'815.7
2017-Nov-23 16:31N 54°51' W 005°48'0 0.1
2017-Nov-23 16:00N 54°51' W 005°48'0 0.0
2017-Nov-23 15:30N 54°51' W 005°48'3 6.8
2017-Nov-23 15:00N 54°53' W 005°43'1020.2
2017-Nov-23 14:31N 54°57' W 005°28'917.1
2017-Nov-23 14:01N 55°01' W 005°14'713.5
2017-Nov-23 13:30N 54°59' W 005°02'1 1.8
2017-Nov-23 12:47N 54°58' W 005°01'0 0.0
2017-Nov-23 12:26N 54°58' W 005°01'510.1
2017-Nov-23 11:57N 55°02' W 005°07'717.0
2017-Nov-23 11:31N 54°59' W 005°18'917.2
2017-Nov-23 11:01N 54°55' W 005°32'917.8
2017-Nov-23 10:30N 54°52' W 005°47'1 2.7
2017-Nov-23 10:00N 54°51' W 005°48'0 0.0
2017-Nov-23 09:30N 54°51' W 005°48'5 9.3
2017-Nov-23 09:00N 54°53' W 005°41'816.9
2017-Nov-23 08:30N 54°57' W 005°28'917.1
2017-Nov-23 08:00N 55°01' W 005°15'713.8
2017-Nov-23 07:30N 54°59' W 005°03'2 2.5
2017-Nov-23 06:50N 54°58' W 005°01'0 0.0
2017-Nov-23 06:20N 54°58' W 005°01'0 0.0
2017-Nov-23 05:56N 54°58' W 005°01'510.6
2017-Nov-23 05:28N 55°02' W 005°06'715.9
2017-Nov-23 05:00N 54°59' W 005°18'918.2
2017-Nov-23 04:30N 54°55' W 005°32'917.7
2017-Nov-23 04:00N 54°52' W 005°47'1 2.6
2017-Nov-23 03:28N 54°51' W 005°48'0 0.0
2017-Nov-23 02:58N 54°51' W 005°48'0 0.0
2017-Nov-23 02:28N 54°51' W 005°48'0 0.0
2017-Nov-23 01:58N 54°51' W 005°48'4 7.9
2017-Nov-23 01:30N 54°53' W 005°43'917.7
2017-Nov-23 01:00N 54°57' W 005°29'917.6
2017-Nov-23 00:30N 55°00' W 005°15'714.0
2017-Nov-23 00:00N 54°59' W 005°03'2 0.9
2017-Nov-22 22:01N 54°58' W 005°01'0 0.0
2017-Nov-22 21:51N 54°58' W 005°01'510.7
2017-Nov-22 21:22N 55°02' W 005°07'718.4
2017-Nov-22 21:00N 54°59' W 005°18'1020.4
2017-Nov-22 20:30N 54°55' W 005°34'917.7
2017-Nov-22 20:00N 54°51' W 005°48'0 0.2
2017-Nov-22 19:30N 54°51' W 005°48'  
2017-Nov-20 00:30N 54°54' W 005°40'917.8
2017-Nov-20 00:00N 54°58' W 005°26'917.4
2017-Nov-19 23:30N 55°01' W 005°12'7 4.4
2017-Nov-19 21:53N 54°58' W 005°01'612.6
2017-Nov-19 21:26N 55°01' W 005°08'717.0
2017-Nov-19 21:00N 54°58' W 005°20'917.7
2017-Nov-19 20:29N 54°54' W 005°34'816.8
2017-Nov-19 19:59N 54°51' W 005°48'0 0.3
2017-Nov-19 19:25N 54°51' W 005°48'0 0.0
2017-Nov-19 18:58N 54°51' W 005°48'0 0.0
2017-Nov-19 18:22N 54°51' W 005°48'2 6.3
2017-Nov-19 18:00N 54°52' W 005°45'917.5
2017-Nov-19 17:30N 54°56' W 005°31'917.7
2017-Nov-19 17:00N 54°60' W 005°18'914.4
2017-Nov-19 16:24N 54°59' W 005°02'1 0.9
2017-Nov-19 14:52N 54°58' W 005°01'612.0
2017-Nov-19 14:23N 55°01' W 005°09'718.8
2017-Nov-19 14:00N 54°59' W 005°20'917.7
2017-Nov-19 13:29N 54°55' W 005°34'916.1
2017-Nov-19 12:57N 54°51' W 005°48'0 0.4
2017-Nov-19 12:29N 54°51' W 005°48'0 0.0
2017-Nov-19 11:56N 54°51' W 005°48'0 0.0
2017-Nov-19 11:26N 54°51' W 005°48'0 0.0
2017-Nov-19 10:56N 54°51' W 005°48'0 0.0
2017-Nov-19 10:23N 54°51' W 005°48'0 0.0
2017-Nov-19 09:59N 54°51' W 005°48'0 0.0
2017-Nov-19 09:29N 54°51' W 005°48'2 5.0
2017-Nov-19 09:00N 54°52' W 005°45'918.0
2017-Nov-19 08:30N 54°56' W 005°31'918.6
2017-Nov-19 08:00N 54°60' W 005°16'814.1
2017-Nov-19 07:28N 54°59' W 005°02'1 0.1
2017-Nov-18 21:54N 54°58' W 005°01'513.0
2017-Nov-18 21:30N 55°02' W 005°07'1019.2
2017-Nov-18 21:00N 54°58' W 005°22'1020.2
2017-Nov-18 20:30N 54°53' W 005°38'612.2
2017-Nov-18 20:00N 54°51' W 005°48'0 0.0
2017-Nov-18 19:30N 54°51' W 005°48'0 0.0
2017-Nov-18 18:54N 54°51' W 005°48'0 0.0
2017-Nov-18 18:30N 54°51' W 005°48'1 1.1
2017-Nov-18 18:00N 54°51' W 005°48'918.6
2017-Nov-18 17:30N 54°55' W 005°34'1019.8
2017-Nov-18 17:00N 54°60' W 005°18'816.0
2017-Nov-18 16:29N 54°59' W 005°03'2 3.4
2017-Nov-18 15:52N 54°58' W 005°01'0 0.0
2017-Nov-18 15:29N 54°58' W 005°01'5 8.6
2017-Nov-18 14:53N 55°02' W 005°07'717.8
2017-Nov-18 14:30N 54°59' W 005°18'917.8
2017-Nov-18 14:00N 54°55' W 005°32'917.6
2017-Nov-18 13:29N 54°52' W 005°47'2 3.2
2017-Nov-18 13:00N 54°51' W 005°48'0 0.0
2017-Nov-18 12:31N 54°51' W 005°48'611.7
2017-Nov-18 12:00N 54°54' W 005°39'917.9
2017-Nov-18 11:30N 54°58' W 005°25'917.6
2017-Nov-18 11:00N 55°01' W 005°11'7 6.5
2017-Nov-18 09:58N 54°58' W 005°01'0 0.0
2017-Nov-18 09:28N 54°58' W 005°01'5 9.7
2017-Nov-18 08:55N 55°01' W 005°07'716.1
2017-Nov-18 08:30N 54°59' W 005°18'917.1
2017-Nov-18 08:00N 54°55' W 005°31'918.8
2017-Nov-18 07:30N 54°52' W 005°47'1 2.6
2017-Nov-18 07:00N 54°51' W 005°48'0 0.0
2017-Nov-18 06:30N 54°51' W 005°48'0 0.0
2017-Nov-18 06:00N 54°51' W 005°48'611.6
2017-Nov-18 05:30N 54°54' W 005°39'917.6
2017-Nov-18 05:00N 54°58' W 005°26'816.3
2017-Nov-18 04:30N 55°01' W 005°12'613.0
2017-Nov-18 04:00N 54°58' W 005°02'1 1.5
2017-Nov-18 03:28N 54°58' W 005°01'0 0.0
2017-Nov-18 02:58N 54°58' W 005°01'0 0.0
2017-Nov-18 02:19N 54°58' W 005°01'0 0.0
2017-Nov-18 02:00N 54°58' W 005°01'6 9.8
2017-Nov-18 01:25N 55°02' W 005°09'718.7
2017-Nov-18 01:01N 54°58' W 005°20'918.0
2017-Nov-18 00:30N 54°54' W 005°35'816.5
2017-Nov-18 00:01N 54°51' W 005°48'0 0.4
2017-Nov-17 23:30N 54°51' W 005°48'0 0.0
2017-Nov-17 23:00N 54°51' W 005°48'0 0.0
2017-Nov-17 22:30N 54°51' W 005°48'0 0.0
2017-Nov-17 22:00N 54°51' W 005°48'611.8
2017-Nov-17 21:30N 54°54' W 005°40'816.7
2017-Nov-17 21:01N 54°58' W 005°27'816.0
2017-Nov-17 20:31N 55°00' W 005°14'612.3
2017-Nov-17 20:00N 54°59' W 005°03'2 3.1
2017-Nov-17 19:24N 54°58' W 005°01'0 0.0
2017-Nov-17 19:00N 54°58' W 005°01'0 0.0
2017-Nov-17 18:30N 54°58' W 005°01'5 8.1
2017-Nov-17 17:51N 55°02' W 005°07'616.8
2017-Nov-17 17:31N 54°59' W 005°16'918.3
2017-Nov-17 17:01N 54°55' W 005°31'918.8
2017-Nov-17 16:30N 54°52' W 005°46'2 3.1
2017-Nov-17 16:00N 54°51' W 005°48'0 0.0
2017-Nov-17 15:30N 54°51' W 005°48'4 8.7
2017-Nov-17 15:01N 54°53' W 005°42'1019.1
2017-Nov-17 14:29N 54°59' W 005°28'918.4
2017-Nov-17 14:01N 55°01' W 005°13'815.1
2017-Nov-17 13:30N 54°58' W 005°01'0 0.4
2017-Nov-17 12:58N 54°58' W 005°01'0 0.0
2017-Nov-17 12:28N 54°58' W 005°01'5 9.1
2017-Nov-17 11:56N 55°02' W 005°06'818.8
2017-Nov-17 11:30N 54°59' W 005°19'918.2
2017-Nov-17 11:00N 54°55' W 005°34'917.7
2017-Nov-17 10:30N 54°51' W 005°48'0 0.8
2017-Nov-17 09:59N 54°51' W 005°48'0 0.0
2017-Nov-17 09:30N 54°51' W 005°48'4 8.8
2017-Nov-17 09:00N 54°53' W 005°42'816.8
2017-Nov-17 08:30N 54°57' W 005°28'816.5
2017-Nov-17 08:00N 55°00' W 005°15'713.5
2017-Nov-17 07:29N 54°59' W 005°03'2 3.9
2017-Nov-17 06:59N 54°58' W 005°01'0 0.0
2017-Nov-17 06:29N 54°58' W 005°01'0 0.0
2017-Nov-17 06:00N 54°58' W 005°01'510.1
2017-Nov-17 05:28N 55°02' W 005°07'816.7
2017-Nov-17 05:00N 54°59' W 005°19'918.5
2017-Nov-17 04:30N 54°55' W 005°34'917.4
2017-Nov-17 04:00N 54°51' W 005°48'0 0.7
2017-Nov-17 03:29N 54°51' W 005°48'0 0.0
2017-Nov-17 02:59N 54°51' W 005°48'0 0.0
2017-Nov-17 02:29N 54°51' W 005°48'0 0.0
2017-Nov-17 02:01N 54°51' W 005°48'510.4
2017-Nov-17 01:31N 54°54' W 005°40'917.6
2017-Nov-17 01:00N 54°58' W 005°27'816.9
2017-Nov-17 00:31N 55°01' W 005°13'713.8
2017-Nov-17 00:01N 54°58' W 005°02'1 1.4
2017-Nov-16 23:22N 54°58' W 005°01'0 0.0
2017-Nov-16 22:58N 54°58' W 005°01'0 0.0
2017-Nov-16 22:25N 54°58' W 005°01'0 0.0
2017-Nov-16 21:58N 54°58' W 005°01'5 9.3
2017-Nov-16 21:26N 55°02' W 005°06'716.8
2017-Nov-16 21:00N 54°59' W 005°18'917.8
2017-Nov-16 20:30N 54°55' W 005°32'918.7
2017-Nov-16 20:00N 54°52' W 005°47'1 1.7
2017-Nov-16 19:26N 54°51' W 005°48'0 0.0
2017-Nov-16 18:59N 54°51' W 005°48'0 0.0
2017-Nov-16 18:31N 54°51' W 005°48'612.2
2017-Nov-16 18:00N 54°54' W 005°39'918.1
2017-Nov-16 17:30N 54°58' W 005°24'1016.7
2017-Nov-16 16:54N 55°02' W 005°08'513.0
2017-Nov-16 16:30N 54°58' W 005°02'1 1.0
2017-Nov-16 15:55N 54°58' W 005°01'0 0.0
2017-Nov-16 15:29N 54°58' W 005°01'5 8.4
2017-Nov-16 14:53N 55°01' W 005°07'617.2
2017-Nov-16 14:30N 54°59' W 005°17'917.8
2017-Nov-16 14:00N 54°55' W 005°32'917.7
2017-Nov-16 13:29N 54°52' W 005°47'1 2.8
2017-Nov-16 12:57N 54°51' W 005°48'0 0.0
2017-Nov-16 12:27N 54°51' W 005°48'2 4.7
2017-Nov-16 12:00N 54°52' W 005°45'1019.9
2017-Nov-16 11:30N 54°57' W 005°30'1019.0
2017-Nov-16 11:01N 55°01' W 005°15'714.3
2017-Nov-16 10:30N 54°59' W 005°03'1 1.3
2017-Nov-16 09:20N 54°58' W 005°01'510.7
2017-Nov-16 08:52N 55°02' W 005°07'616.7
2017-Nov-16 08:30N 54°59' W 005°17'917.6
2017-Nov-16 08:00N 54°55' W 005°30'1018.8
2017-Nov-16 07:29N 54°52' W 005°46'1 2.8
2017-Nov-16 06:58N 54°51' W 005°48'0 0.0
2017-Nov-16 06:17N 54°51' W 005°48'0 0.3
2017-Nov-16 06:00N 54°51' W 005°48'713.8
2017-Nov-16 05:30N 54°54' W 005°38'917.2
2017-Nov-16 05:00N 54°58' W 005°24'816.7
2017-Nov-16 04:30N 55°01' W 005°10'612.8
2017-Nov-16 04:00N 54°58' W 005°01'0 0.1
2017-Nov-16 03:27N 54°58' W 005°01'0 0.0
2017-Nov-16 03:00N 54°58' W 005°01'0 0.0
2017-Nov-16 02:30N 54°58' W 005°01'0 0.0
2017-Nov-16 01:57N 54°58' W 005°01'4 7.1
2017-Nov-16 01:26N 55°01' W 005°04'818.4
2017-Nov-16 01:00N 54°59' W 005°18'1020.3
2017-Nov-16 00:30N 54°55' W 005°35'917.5
2017-Nov-16 00:00N 54°51' W 005°48'0 0.3
2017-Nov-15 23:28N 54°51' W 005°48'0 0.0
2017-Nov-15 22:58N 54°51' W 005°48'0 0.0
2017-Nov-15 22:28N 54°51' W 005°48'0 0.0
2017-Nov-15 21:58N 54°51' W 005°48'4 7.9
2017-Nov-15 21:30N 54°53' W 005°43'917.6
2017-Nov-15 21:00N 54°57' W 005°29'917.4
2017-Nov-15 20:30N 55°00' W 005°15'713.2
2017-Nov-15 19:58N 54°59' W 005°03'2 2.5
2017-Nov-15 19:14N 54°58' W 005°01'0 0.0
2017-Nov-15 18:56N 54°58' W 005°01'0 0.0
2017-Nov-15 18:25N 54°58' W 005°01'5 9.2
2017-Nov-15 17:53N 55°01' W 005°07'616.9
2017-Nov-15 17:30N 54°60' W 005°17'918.6
2017-Nov-15 17:00N 54°56' W 005°32'1018.9
2017-Nov-15 16:30N 54°52' W 005°47'1 1.9
2017-Nov-15 15:58N 54°51' W 005°48'0 0.0
2017-Nov-15 15:28N 54°51' W 005°48'3 7.3
2017-Nov-15 15:00N 54°53' W 005°43'816.8
2017-Nov-15 14:30N 54°56' W 005°30'816.8
2017-Nov-15 14:01N 55°00' W 005°17'814.8
2017-Nov-15 13:27N 54°59' W 005°03'2 3.7
2017-Nov-15 12:59N 54°58' W 005°01'0 0.0
2017-Nov-15 12:29N 54°58' W 005°01'5 8.9
2017-Nov-15 11:54N 55°02' W 005°07'818.8
2017-Nov-15 11:30N 54°59' W 005°19'918.4
2017-Nov-15 11:00N 54°55' W 005°34'917.6
2017-Nov-15 10:30N 54°51' W 005°48'0 0.9
2017-Nov-15 09:59N 54°51' W 005°48'0 0.0
2017-Nov-15 09:30N 54°51' W 005°48'5 9.3
2017-Nov-15 09:00N 54°53' W 005°41'917.9
2017-Nov-15 08:31N 54°58' W 005°28'917.8
2017-Nov-15 08:01N 55°02' W 005°14'815.1
2017-Nov-15 07:31N 54°59' W 005°02'1 2.3
2017-Nov-15 07:00N 54°58' W 005°01'0 0.0
2017-Nov-15 06:30N 54°58' W 005°01'0 0.0
2017-Nov-15 06:00N 54°58' W 005°01'4 8.8
2017-Nov-15 05:29N 55°01' W 005°05'816.9
2017-Nov-15 05:00N 54°59' W 005°19'918.7
2017-Nov-15 04:30N 54°55' W 005°34'917.8
2017-Nov-15 04:01N 54°51' W 005°48'0 0.8
2017-Nov-15 03:30N 54°51' W 005°48'0 0.0
2017-Nov-15 03:01N 54°51' W 005°48'0 0.0
2017-Nov-15 02:31N 54°51' W 005°48'0 0.0
2017-Nov-15 02:00N 54°51' W 005°48'4 8.5
2017-Nov-15 01:30N 54°53' W 005°42'918.0
2017-Nov-15 01:00N 54°57' W 005°28'917.5
2017-Nov-15 00:30N 55°01' W 005°14'714.2
2017-Nov-15 00:01N 54°59' W 005°02'1 2.0
2017-Nov-14 23:28N 54°58' W 005°01'0 0.0
2017-Nov-14 22:58N 54°58' W 005°01'0 0.0
2017-Nov-14 22:19N 54°58' W 005°01'0 0.0
2017-Nov-14 21:59N 54°58' W 005°01'5 9.6
2017-Nov-14 21:28N 55°02' W 005°07'818.0
2017-Nov-14 21:00N 54°58' W 005°20'918.2
2017-Nov-14 20:30N 54°55' W 005°34'816.8
2017-Nov-14 20:00N 54°51' W 005°48'0 0.4
2017-Nov-14 19:30N 54°51' W 005°48'0 0.0
2017-Nov-14 19:00N 54°51' W 005°48'0 0.0
2017-Nov-14 18:30N 54°51' W 005°48'4 9.3
2017-Nov-14 18:01N 54°53' W 005°41'917.9
2017-Nov-14 17:31N 54°57' W 005°27'918.5
2017-Nov-14 17:01N 55°01' W 005°13'713.9
2017-Nov-14 16:31N 54°58' W 005°02'1 1.0
2017-Nov-14 16:00N 54°58' W 005°01'0 0.0
2017-Nov-14 15:30N 54°58' W 005°01'5 9.1
2017-Nov-14 14:57N 55°01' W 005°07'817.6
2017-Nov-14 14:30N 54°58' W 005°19'918.3
2017-Nov-14 14:00N 54°55' W 005°34'916.5
2017-Nov-14 13:28N 54°51' W 005°48'0 0.3
2017-Nov-14 12:57N 54°51' W 005°48'0 0.0
2017-Nov-14 12:27N 54°51' W 005°48'511.0
2017-Nov-14 12:00N 54°54' W 005°41'918.0
2017-Nov-14 11:31N 54°58' W 005°27'917.5
2017-Nov-14 11:00N 55°01' W 005°13'714.3
2017-Nov-14 10:30N 54°58' W 005°02'1 1.0
2017-Nov-14 09:58N 54°58' W 005°01'0 0.0
2017-Nov-14 09:28N 54°58' W 005°01'510.9
2017-Nov-14 09:00N 55°02' W 005°07'917.8
2017-Nov-14 08:30N 54°58' W 005°21'917.7
2017-Nov-14 08:00N 54°54' W 005°35'816.2
2017-Nov-14 07:31N 54°51' W 005°48'0 0.2
2017-Nov-14 07:00N 54°51' W 005°48'0 0.0
2017-Nov-14 06:30N 54°51' W 005°48'0 0.0
2017-Nov-14 06:00N 54°51' W 005°48'612.2
2017-Nov-14 05:31N 54°54' W 005°39'1121.0
2017-Nov-14 05:00N 54°59' W 005°23'1116.8
2017-Nov-14 04:20N 54°59' W 005°03'2 5.0
2017-Nov-14 03:58N 54°58' W 005°01'0 0.0
2017-Nov-14 03:28N 54°58' W 005°01'0 0.0
2017-Nov-14 02:58N 54°58' W 005°01'0 0.0
2017-Nov-14 02:28N 54°58' W 005°01'0 0.0
2017-Nov-14 01:58N 54°58' W 005°01'5 8.6
2017-Nov-14 01:23N 55°02' W 005°06'719.6
2017-Nov-14 01:00N 54°59' W 005°18'1020.2
2017-Nov-14 00:30N 54°55' W 005°34'816.9
2017-Nov-14 00:00N 54°51' W 005°48'0 0.3
2017-Nov-13 23:29N 54°51' W 005°48'0 0.0
2017-Nov-13 22:59N 54°51' W 005°48'0 0.0
2017-Nov-13 22:29N 54°51' W 005°48'0 0.0
2017-Nov-13 21:59N 54°51' W 005°48'  
Track history (hours):
 
Tides and Currents Weather Stations Pressure Air Temp Water Temp Dewpoint Dewpoint Depression Visibility Wind Speed Wind Dir Waves Ship Positions

European Highlander

Operator: P&O Irish Sea Ltd

Last reported at 2017-Nov-23 18:18 UTC. Time now 2017-Nov-23 22:29 UTC.
Position N 54°58' W 005°01'.

Length 161 m; draft 5.5 m.

Type: Passenger vessel. MMSI: 311404000.

Date/timePositionNaut miles runAvg speedWind from/ knotsBaromVisibWave heightAir tempDewpointWater temp
2017-Nov-23 18:18N 54°58' W 005°01'512.5
2017-Nov-23 17:52N 55°02' W 005°08'720.3
2017-Nov-23 17:30N 54°58' W 005°19'1020.5
2017-Nov-23 17:00N 54°54' W 005°36'815.7
2017-Nov-23 16:31N 54°51' W 005°48'0 0.1
2017-Nov-23 16:00N 54°51' W 005°48'0 0.0
2017-Nov-23 15:30N 54°51' W 005°48'3 6.8
2017-Nov-23 15:00N 54°53' W 005°43'1020.2
2017-Nov-23 14:31N 54°57' W 005°28'917.1
2017-Nov-23 14:01N 55°01' W 005°14'713.5
2017-Nov-23 13:30N 54°59' W 005°02'1 1.8
2017-Nov-23 12:47N 54°58' W 005°01'0 0.0
2017-Nov-23 12:26N 54°58' W 005°01'510.1
2017-Nov-23 11:57N 55°02' W 005°07'717.0
2017-Nov-23 11:31N 54°59' W 005°18'917.2
2017-Nov-23 11:01N 54°55' W 005°32'917.8
2017-Nov-23 10:30N 54°52' W 005°47'1 2.7
2017-Nov-23 10:00N 54°51' W 005°48'0 0.0
2017-Nov-23 09:30N 54°51' W 005°48'5 9.3
2017-Nov-23 09:00N 54°53' W 005°41'816.9
2017-Nov-23 08:30N 54°57' W 005°28'917.1
2017-Nov-23 08:00N 55°01' W 005°15'713.8
2017-Nov-23 07:30N 54°59' W 005°03'2 2.5
2017-Nov-23 06:50N 54°58' W 005°01'0 0.0
2017-Nov-23 06:20N 54°58' W 005°01'0 0.0
2017-Nov-23 05:56N 54°58' W 005°01'510.6
2017-Nov-23 05:28N 55°02' W 005°06'715.9
2017-Nov-23 05:00N 54°59' W 005°18'918.2
2017-Nov-23 04:30N 54°55' W 005°32'917.7
2017-Nov-23 04:00N 54°52' W 005°47'1 2.6
2017-Nov-23 03:28N 54°51' W 005°48'0 0.0
2017-Nov-23 02:58N 54°51' W 005°48'0 0.0
2017-Nov-23 02:28N 54°51' W 005°48'0 0.0
2017-Nov-23 01:58N 54°51' W 005°48'4 7.9
2017-Nov-23 01:30N 54°53' W 005°43'917.7
2017-Nov-23 01:00N 54°57' W 005°29'917.6
2017-Nov-23 00:30N 55°00' W 005°15'714.0
2017-Nov-23 00:00N 54°59' W 005°03'2 0.9
2017-Nov-22 22:01N 54°58' W 005°01'0 0.0
2017-Nov-22 21:51N 54°58' W 005°01'510.7
2017-Nov-22 21:22N 55°02' W 005°07'718.4
2017-Nov-22 21:00N 54°59' W 005°18'1020.4
2017-Nov-22 20:30N 54°55' W 005°34'917.7
2017-Nov-22 20:00N 54°51' W 005°48'0 0.2
2017-Nov-22 19:30N 54°51' W 005°48'  
2017-Nov-20 00:30N 54°54' W 005°40'917.8
2017-Nov-20 00:00N 54°58' W 005°26'917.4
2017-Nov-19 23:30N 55°01' W 005°12'7 4.4
2017-Nov-19 21:53N 54°58' W 005°01'612.6
2017-Nov-19 21:26N 55°01' W 005°08'717.0
2017-Nov-19 21:00N 54°58' W 005°20'917.7
2017-Nov-19 20:29N 54°54' W 005°34'816.8
2017-Nov-19 19:59N 54°51' W 005°48'0 0.3
2017-Nov-19 19:25N 54°51' W 005°48'0 0.0
2017-Nov-19 18:58N 54°51' W 005°48'0 0.0
2017-Nov-19 18:22N 54°51' W 005°48'2 6.3
2017-Nov-19 18:00N 54°52' W 005°45'917.5
2017-Nov-19 17:30N 54°56' W 005°31'917.7
2017-Nov-19 17:00N 54°60' W 005°18'914.4
2017-Nov-19 16:24N 54°59' W 005°02'1 0.9
2017-Nov-19 14:52N 54°58' W 005°01'612.0
2017-Nov-19 14:23N 55°01' W 005°09'718.8
2017-Nov-19 14:00N 54°59' W 005°20'917.7
2017-Nov-19 13:29N 54°55' W 005°34'916.1
2017-Nov-19 12:57N 54°51' W 005°48'0 0.4
2017-Nov-19 12:29N 54°51' W 005°48'0 0.0
2017-Nov-19 11:56N 54°51' W 005°48'0 0.0
2017-Nov-19 11:26N 54°51' W 005°48'0 0.0
2017-Nov-19 10:56N 54°51' W 005°48'0 0.0
2017-Nov-19 10:23N 54°51' W 005°48'0 0.0
2017-Nov-19 09:59N 54°51' W 005°48'0 0.0
2017-Nov-19 09:29N 54°51' W 005°48'2 5.0
2017-Nov-19 09:00N 54°52' W 005°45'918.0
2017-Nov-19 08:30N 54°56' W 005°31'918.6
2017-Nov-19 08:00N 54°60' W 005°16'814.1
2017-Nov-19 07:28N 54°59' W 005°02'1 0.1
2017-Nov-18 21:54N 54°58' W 005°01'513.0
2017-Nov-18 21:30N 55°02' W 005°07'1019.2
2017-Nov-18 21:00N 54°58' W 005°22'1020.2
2017-Nov-18 20:30N 54°53' W 005°38'612.2
2017-Nov-18 20:00N 54°51' W 005°48'0 0.0
2017-Nov-18 19:30N 54°51' W 005°48'0 0.0
2017-Nov-18 18:54N 54°51' W 005°48'0 0.0
2017-Nov-18 18:30N 54°51' W 005°48'1 1.1
2017-Nov-18 18:00N 54°51' W 005°48'918.6
2017-Nov-18 17:30N 54°55' W 005°34'1019.8
2017-Nov-18 17:00N 54°60' W 005°18'816.0
2017-Nov-18 16:29N 54°59' W 005°03'2 3.4
2017-Nov-18 15:52N 54°58' W 005°01'0 0.0
2017-Nov-18 15:29N 54°58' W 005°01'5 8.6
2017-Nov-18 14:53N 55°02' W 005°07'717.8
2017-Nov-18 14:30N 54°59' W 005°18'917.8
2017-Nov-18 14:00N 54°55' W 005°32'917.6
2017-Nov-18 13:29N 54°52' W 005°47'2 3.2
2017-Nov-18 13:00N 54°51' W 005°48'0 0.0
2017-Nov-18 12:31N 54°51' W 005°48'611.7
2017-Nov-18 12:00N 54°54' W 005°39'917.9
2017-Nov-18 11:30N 54°58' W 005°25'917.6
2017-Nov-18 11:00N 55°01' W 005°11'7 6.5
2017-Nov-18 09:58N 54°58' W 005°01'0 0.0
2017-Nov-18 09:28N 54°58' W 005°01'5 9.7
2017-Nov-18 08:55N 55°01' W 005°07'716.1
2017-Nov-18 08:30N 54°59' W 005°18'917.1
2017-Nov-18 08:00N 54°55' W 005°31'918.8
2017-Nov-18 07:30N 54°52' W 005°47'1 2.6
2017-Nov-18 07:00N 54°51' W 005°48'0 0.0
2017-Nov-18 06:30N 54°51' W 005°48'0 0.0
2017-Nov-18 06:00N 54°51' W 005°48'611.6
2017-Nov-18 05:30N 54°54' W 005°39'917.6
2017-Nov-18 05:00N 54°58' W 005°26'816.3
2017-Nov-18 04:30N 55°01' W 005°12'613.0
2017-Nov-18 04:00N 54°58' W 005°02'1 1.5
2017-Nov-18 03:28N 54°58' W 005°01'0 0.0
2017-Nov-18 02:58N 54°58' W 005°01'0 0.0
2017-Nov-18 02:19N 54°58' W 005°01'0 0.0
2017-Nov-18 02:00N 54°58' W 005°01'6 9.8
2017-Nov-18 01:25N 55°02' W 005°09'718.7
2017-Nov-18 01:01N 54°58' W 005°20'918.0
2017-Nov-18 00:30N 54°54' W 005°35'816.5
2017-Nov-18 00:01N 54°51' W 005°48'0 0.4
2017-Nov-17 23:30N 54°51' W 005°48'0 0.0
2017-Nov-17 23:00N 54°51' W 005°48'0 0.0
2017-Nov-17 22:30N 54°51' W 005°48'0 0.0
2017-Nov-17 22:00N 54°51' W 005°48'611.8
2017-Nov-17 21:30N 54°54' W 005°40'816.7
2017-Nov-17 21:01N 54°58' W 005°27'816.0
2017-Nov-17 20:31N 55°00' W 005°14'612.3
2017-Nov-17 20:00N 54°59' W 005°03'2 3.1
2017-Nov-17 19:24N 54°58' W 005°01'0 0.0
2017-Nov-17 19:00N 54°58' W 005°01'0 0.0
2017-Nov-17 18:30N 54°58' W 005°01'5 8.1
2017-Nov-17 17:51N 55°02' W 005°07'616.8
2017-Nov-17 17:31N 54°59' W 005°16'918.3
2017-Nov-17 17:01N 54°55' W 005°31'918.8
2017-Nov-17 16:30N 54°52' W 005°46'2 3.1
2017-Nov-17 16:00N 54°51' W 005°48'0 0.0
2017-Nov-17 15:30N 54°51' W 005°48'4 8.7
2017-Nov-17 15:01N 54°53' W 005°42'1019.1
2017-Nov-17 14:29N 54°59' W 005°28'918.4
2017-Nov-17 14:01N 55°01' W 005°13'815.1
2017-Nov-17 13:30N 54°58' W 005°01'0 0.4
2017-Nov-17 12:58N 54°58' W 005°01'0 0.0
2017-Nov-17 12:28N 54°58' W 005°01'5 9.1
2017-Nov-17 11:56N 55°02' W 005°06'818.8
2017-Nov-17 11:30N 54°59' W 005°19'918.2
2017-Nov-17 11:00N 54°55' W 005°34'917.7
2017-Nov-17 10:30N 54°51' W 005°48'0 0.8
2017-Nov-17 09:59N 54°51' W 005°48'0 0.0
2017-Nov-17 09:30N 54°51' W 005°48'4 8.8
2017-Nov-17 09:00N 54°53' W 005°42'816.8
2017-Nov-17 08:30N 54°57' W 005°28'816.5
2017-Nov-17 08:00N 55°00' W 005°15'713.5
2017-Nov-17 07:29N 54°59' W 005°03'2 3.9
2017-Nov-17 06:59N 54°58' W 005°01'0 0.0
2017-Nov-17 06:29N 54°58' W 005°01'0 0.0
2017-Nov-17 06:00N 54°58' W 005°01'510.1
2017-Nov-17 05:28N 55°02' W 005°07'816.7
2017-Nov-17 05:00N 54°59' W 005°19'918.5
2017-Nov-17 04:30N 54°55' W 005°34'917.4
2017-Nov-17 04:00N 54°51' W 005°48'0 0.7
2017-Nov-17 03:29N 54°51' W 005°48'0 0.0
2017-Nov-17 02:59N 54°51' W 005°48'0 0.0
2017-Nov-17 02:29N 54°51' W 005°48'0 0.0
2017-Nov-17 02:01N 54°51' W 005°48'510.4
2017-Nov-17 01:31N 54°54' W 005°40'917.6
2017-Nov-17 01:00N 54°58' W 005°27'816.9
2017-Nov-17 00:31N 55°01' W 005°13'713.8
2017-Nov-17 00:01N 54°58' W 005°02'1 1.4
2017-Nov-16 23:22N 54°58' W 005°01'0 0.0
2017-Nov-16 22:58N 54°58' W 005°01'0 0.0
2017-Nov-16 22:25N 54°58' W 005°01'0 0.0
2017-Nov-16 21:58N 54°58' W 005°01'5 9.3
2017-Nov-16 21:26N 55°02' W 005°06'716.8
2017-Nov-16 21:00N 54°59' W 005°18'917.8
2017-Nov-16 20:30N 54°55' W 005°32'918.7
2017-Nov-16 20:00N 54°52' W 005°47'1 1.7
2017-Nov-16 19:26N 54°51' W 005°48'0 0.0
2017-Nov-16 18:59N 54°51' W 005°48'0 0.0
2017-Nov-16 18:31N 54°51' W 005°48'612.2
2017-Nov-16 18:00N 54°54' W 005°39'918.1
2017-Nov-16 17:30N 54°58' W 005°24'1016.7
2017-Nov-16 16:54N 55°02' W 005°08'513.0
2017-Nov-16 16:30N 54°58' W 005°02'1 1.0
2017-Nov-16 15:55N 54°58' W 005°01'0 0.0
2017-Nov-16 15:29N 54°58' W 005°01'5 8.4
2017-Nov-16 14:53N 55°01' W 005°07'617.2
2017-Nov-16 14:30N 54°59' W 005°17'917.8
2017-Nov-16 14:00N 54°55' W 005°32'917.7
2017-Nov-16 13:29N 54°52' W 005°47'1 2.8
2017-Nov-16 12:57N 54°51' W 005°48'0 0.0
2017-Nov-16 12:27N 54°51' W 005°48'2 4.7
2017-Nov-16 12:00N 54°52' W 005°45'1019.9
2017-Nov-16 11:30N 54°57' W 005°30'1019.0
2017-Nov-16 11:01N 55°01' W 005°15'714.3
2017-Nov-16 10:30N 54°59' W 005°03'1 1.3
2017-Nov-16 09:20N 54°58' W 005°01'510.7
2017-Nov-16 08:52N 55°02' W 005°07'616.7
2017-Nov-16 08:30N 54°59' W 005°17'917.6
2017-Nov-16 08:00N 54°55' W 005°30'1018.8
2017-Nov-16 07:29N 54°52' W 005°46'1 2.8
2017-Nov-16 06:58N 54°51' W 005°48'0 0.0
2017-Nov-16 06:17N 54°51' W 005°48'0 0.3
2017-Nov-16 06:00N 54°51' W 005°48'713.8
2017-Nov-16 05:30N 54°54' W 005°38'917.2
2017-Nov-16 05:00N 54°58' W 005°24'816.7
2017-Nov-16 04:30N 55°01' W 005°10'612.8
2017-Nov-16 04:00N 54°58' W 005°01'0 0.1
2017-Nov-16 03:27N 54°58' W 005°01'0 0.0
2017-Nov-16 03:00N 54°58' W 005°01'0 0.0
2017-Nov-16 02:30N 54°58' W 005°01'0 0.0
2017-Nov-16 01:57N 54°58' W 005°01'4 7.1
2017-Nov-16 01:26N 55°01' W 005°04'818.4
2017-Nov-16 01:00N 54°59' W 005°18'1020.3
2017-Nov-16 00:30N 54°55' W 005°35'917.5
2017-Nov-16 00:00N 54°51' W 005°48'0 0.3
2017-Nov-15 23:28N 54°51' W 005°48'0 0.0
2017-Nov-15 22:58N 54°51' W 005°48'0 0.0
2017-Nov-15 22:28N 54°51' W 005°48'0 0.0
2017-Nov-15 21:58N 54°51' W 005°48'4 7.9
2017-Nov-15 21:30N 54°53' W 005°43'917.6
2017-Nov-15 21:00N 54°57' W 005°29'917.4
2017-Nov-15 20:30N 55°00' W 005°15'713.2
2017-Nov-15 19:58N 54°59' W 005°03'2 2.5
2017-Nov-15 19:14N 54°58' W 005°01'0 0.0
2017-Nov-15 18:56N 54°58' W 005°01'0 0.0
2017-Nov-15 18:25N 54°58' W 005°01'5 9.2
2017-Nov-15 17:53N 55°01' W 005°07'616.9
2017-Nov-15 17:30N 54°60' W 005°17'918.6
2017-Nov-15 17:00N 54°56' W 005°32'1018.9
2017-Nov-15 16:30N 54°52' W 005°47'1 1.9
2017-Nov-15 15:58N 54°51' W 005°48'0 0.0
2017-Nov-15 15:28N 54°51' W 005°48'3 7.3
2017-Nov-15 15:00N 54°53' W 005°43'816.8
2017-Nov-15 14:30N 54°56' W 005°30'816.8
2017-Nov-15 14:01N 55°00' W 005°17'814.8
2017-Nov-15 13:27N 54°59' W 005°03'2 3.7
2017-Nov-15 12:59N 54°58' W 005°01'0 0.0
2017-Nov-15 12:29N 54°58' W 005°01'5 8.9
2017-Nov-15 11:54N 55°02' W 005°07'818.8
2017-Nov-15 11:30N 54°59' W 005°19'918.4
2017-Nov-15 11:00N 54°55' W 005°34'917.6
2017-Nov-15 10:30N 54°51' W 005°48'0 0.9
2017-Nov-15 09:59N 54°51' W 005°48'0 0.0
2017-Nov-15 09:30N 54°51' W 005°48'5 9.3
2017-Nov-15 09:00N 54°53' W 005°41'917.9
2017-Nov-15 08:31N 54°58' W 005°28'917.8
2017-Nov-15 08:01N 55°02' W 005°14'815.1
2017-Nov-15 07:31N 54°59' W 005°02'1 2.3
2017-Nov-15 07:00N 54°58' W 005°01'0 0.0
2017-Nov-15 06:30N 54°58' W 005°01'0 0.0
2017-Nov-15 06:00N 54°58' W 005°01'4 8.8
2017-Nov-15 05:29N 55°01' W 005°05'816.9
2017-Nov-15 05:00N 54°59' W 005°19'918.7
2017-Nov-15 04:30N 54°55' W 005°34'917.8
2017-Nov-15 04:01N 54°51' W 005°48'0 0.8
2017-Nov-15 03:30N 54°51' W 005°48'0 0.0
2017-Nov-15 03:01N 54°51' W 005°48'0 0.0
2017-Nov-15 02:31N 54°51' W 005°48'0 0.0
2017-Nov-15 02:00N 54°51' W 005°48'4 8.5
2017-Nov-15 01:30N 54°53' W 005°42'918.0
2017-Nov-15 01:00N 54°57' W 005°28'917.5
2017-Nov-15 00:30N 55°01' W 005°14'714.2
2017-Nov-15 00:01N 54°59' W 005°02'1 2.0
2017-Nov-14 23:28N 54°58' W 005°01'0 0.0
2017-Nov-14 22:58N 54°58' W 005°01'0 0.0
2017-Nov-14 22:19N 54°58' W 005°01'0 0.0
2017-Nov-14 21:59N 54°58' W 005°01'5 9.6
2017-Nov-14 21:28N 55°02' W 005°07'818.0
2017-Nov-14 21:00N 54°58' W 005°20'918.2
2017-Nov-14 20:30N 54°55' W 005°34'816.8
2017-Nov-14 20:00N 54°51' W 005°48'0 0.4
2017-Nov-14 19:30N 54°51' W 005°48'0 0.0
2017-Nov-14 19:00N 54°51' W 005°48'0 0.0
2017-Nov-14 18:30N 54°51' W 005°48'4 9.3
2017-Nov-14 18:01N 54°53' W 005°41'917.9
2017-Nov-14 17:31N 54°57' W 005°27'918.5
2017-Nov-14 17:01N 55°01' W 005°13'713.9
2017-Nov-14 16:31N 54°58' W 005°02'1 1.0
2017-Nov-14 16:00N 54°58' W 005°01'0 0.0
2017-Nov-14 15:30N 54°58' W 005°01'5 9.1
2017-Nov-14 14:57N 55°01' W 005°07'817.6
2017-Nov-14 14:30N 54°58' W 005°19'918.3
2017-Nov-14 14:00N 54°55' W 005°34'916.5
2017-Nov-14 13:28N 54°51' W 005°48'0 0.3
2017-Nov-14 12:57N 54°51' W 005°48'0 0.0
2017-Nov-14 12:27N 54°51' W 005°48'511.0
2017-Nov-14 12:00N 54°54' W 005°41'918.0
2017-Nov-14 11:31N 54°58' W 005°27'917.5
2017-Nov-14 11:00N 55°01' W 005°13'714.3
2017-Nov-14 10:30N 54°58' W 005°02'1 1.0
2017-Nov-14 09:58N 54°58' W 005°01'0 0.0
2017-Nov-14 09:28N 54°58' W 005°01'510.9
2017-Nov-14 09:00N 55°02' W 005°07'917.8
2017-Nov-14 08:30N 54°58' W 005°21'917.7
2017-Nov-14 08:00N 54°54' W 005°35'816.2
2017-Nov-14 07:31N 54°51' W 005°48'0 0.2
2017-Nov-14 07:00N 54°51' W 005°48'0 0.0
2017-Nov-14 06:30N 54°51' W 005°48'0 0.0
2017-Nov-14 06:00N 54°51' W 005°48'612.2
2017-Nov-14 05:31N 54°54' W 005°39'1121.0
2017-Nov-14 05:00N 54°59' W 005°23'1116.8
2017-Nov-14 04:20N 54°59' W 005°03'2 5.0
2017-Nov-14 03:58N 54°58' W 005°01'0 0.0
2017-Nov-14 03:28N 54°58' W 005°01'0 0.0
2017-Nov-14 02:58N 54°58' W 005°01'0 0.0
2017-Nov-14 02:28N 54°58' W 005°01'0 0.0
2017-Nov-14 01:58N 54°58' W 005°01'5 8.6
2017-Nov-14 01:23N 55°02' W 005°06'719.6
2017-Nov-14 01:00N 54°59' W 005°18'1020.2
2017-Nov-14 00:30N 54°55' W 005°34'816.9
2017-Nov-14 00:00N 54°51' W 005°48'0 0.3
2017-Nov-13 23:29N 54°51' W 005°48'0 0.0
2017-Nov-13 22:59N 54°51' W 005°48'0 0.0
2017-Nov-13 22:29N 54°51' W 005°48'0 0.0
2017-Nov-13 21:59N 54°51' W 005°48'  

Dump ship's entire track history